Time;durP1;ratioP1;P1;durP2;ratioP2;P2;SDS_P1;SDS_P2;PMS_P1;PMS_P2;Temp;Humidity;BMP_temperature;BMP_pressure;BME280_temperature;BME280_humidity;BME280_pressure;Samples;Min_cycle;Max_cycle;Signal;HPM_P1;HPM_P2
2022/10/09 00:01:31;;;;;;;8.60;1.48;;;;;;;10.48;100.00;100461.63;5074571;28;20063;-91
2022/10/09 00:04:01;;;;;;;7.15;1.42;;;;;;;10.50;100.00;100462.28;5091282;28;20396;-89
2022/10/09 00:06:34;;;;;;;6.05;1.00;;;;;;;10.49;100.00;100450.91;5110249;28;20503;-90
2022/10/09 00:09:04;;;;;;;4.07;0.50;;;;;;;10.49;100.00;100447.41;5076476;28;20040;-89
2022/10/09 00:11:34;;;;;;;7.35;0.88;;;;;;;10.43;100.00;100444.31;5088102;28;20044;-90
2022/10/09 00:14:05;;;;;;;7.75;0.98;;;;;;;10.37;100.00;100439.63;5102089;28;20063;-88
2022/10/09 00:16:35;;;;;;;10.30;1.30;;;;;;;10.30;100.00;100436.72;5084150;28;20093;-90
2022/10/09 00:19:03;;;;;;;9.38;1.38;;;;;;;10.25;100.00;100435.47;5076486;28;20028;-89
2022/10/09 00:21:33;;;;;;;8.57;1.08;;;;;;;10.22;100.00;100428.69;5071798;28;20074;-90
2022/10/09 00:24:04;;;;;;;6.93;0.85;;;;;;;10.20;100.00;100413.94;5077659;28;20392;-89
2022/10/09 00:26:33;;;;;;;7.47;0.88;;;;;;;10.13;100.00;100414.50;5087375;28;20507;-90
2022/10/09 00:29:00;;;;;;;9.07;1.58;;;;;;;10.12;100.00;100418.13;5060868;28;20036;-90
2022/10/09 00:31:29;;;;;;;5.90;1.15;;;;;;;10.12;100.00;100423.41;5071772;28;20039;-90
2022/10/09 00:33:56;;;;;;;9.02;0.98;;;;;;;10.15;100.00;100411.72;5051513;28;20032;-91
2022/10/09 00:36:26;;;;;;;9.43;1.25;;;;;;;10.15;100.00;100403.81;5056375;28;20043;-90
2022/10/09 00:38:54;;;;;;;9.90;1.08;;;;;;;10.17;100.00;100407.97;5063817;28;20044;-90
2022/10/09 00:41:28;;;;;;;8.25;1.10;;;;;;;10.17;100.00;100405.34;5091801;28;20514;-90
2022/10/09 00:43:59;;;;;;;9.35;1.10;;;;;;;10.17;100.00;100386.84;5087652;28;20027;-90
2022/10/09 00:46:34;;;;;;;8.75;1.02;;;;;;;10.21;100.00;100397.13;5077181;28;20032;-89
2022/10/09 00:49:19;;;;;;;6.40;0.65;;;;;;;10.17;100.00;100386.00;5096092;28;20042;-90
2022/10/09 00:51:49;;;;;;;7.43;1.48;;;;;;;10.10;100.00;100379.63;5074407;28;20035;-90
2022/10/09 00:54:23;;;;;;;7.60;1.10;;;;;;;10.04;100.00;100371.31;5083239;28;20034;-90
2022/10/09 00:56:53;;;;;;;9.23;1.15;;;;;;;10.07;100.00;100369.34;5097237;28;20066;-90
2022/10/09 00:59:20;;;;;;;7.90;1.25;;;;;;;10.10;100.00;100374.34;5048372;28;20021;-90
2022/10/09 01:01:49;;;;;;;5.82;0.50;;;;;;;10.13;100.00;100369.59;5076309;28;20479;-90
2022/10/09 01:04:17;;;;;;;4.72;0.90;;;;;;;10.19;100.00;100370.88;5072738;28;20077;-90
2022/10/09 01:06:55;;;;;;;12.55;1.23;;;;;;;10.25;100.00;100372.94;5070432;28;20028;-90
2022/10/09 01:09:47;;;;;;;9.45;1.15;;;;;;;10.29;100.00;100361.09;5086060;28;20044;-90
2022/10/09 01:12:19;;;;;;;9.05;0.90;;;;;;;10.34;100.00;100349.22;5064743;28;20044;-89
2022/10/09 01:15:09;;;;;;;6.25;1.05;;;;;;;10.35;100.00;100350.91;5064078;28;20106;-90
2022/10/09 01:17:44;;;;;;;7.28;1.00;;;;;;;10.35;100.00;100343.81;5083804;28;20039;-89
2022/10/09 01:20:41;;;;;;;14.48;1.42;;;;;;;10.36;100.00;100339.38;5073742;28;20093;-89
2022/10/09 01:23:48;;;;;;;10.25;1.67;;;;;;;10.34;100.00;100336.03;5107949;28;20044;-89
2022/10/09 01:26:15;;;;;;;14.65;1.38;;;;;;;10.32;100.00;100330.88;5075730;28;20032;-89
2022/10/09 01:29:01;;;;;;;9.85;1.50;;;;;;;10.35;100.00;100327.16;5077129;28;20051;-89
2022/10/09 01:31:32;;;;;;;5.32;0.73;;;;;;;10.37;100.00;100327.81;5073700;28;20042;-89
2022/10/09 01:34:02;;;;;;;10.55;1.25;;;;;;;10.38;100.00;100327.66;5049383;28;20046;-91
2022/10/09 01:36:31;;;;;;;10.50;1.42;;;;;;;10.41;100.00;100323.91;5073128;28;20038;-89
2022/10/09 01:39:03;;;;;;;13.15;1.30;;;;;;;10.40;100.00;100319.63;5089450;28;20032;-89
2022/10/09 01:41:31;;;;;;;4.93;0.90;;;;;;;10.34;100.00;100312.25;5098639;28;20384;-90
2022/10/09 01:43:59;;;;;;;6.38;1.20;;;;;;;10.27;100.00;100299.63;5102738;28;20031;-89
2022/10/09 01:46:29;;;;;;;5.00;0.95;;;;;;;10.22;100.00;100295.78;5104678;28;20036;-90
2022/10/09 01:49:45;;;;;;;6.38;1.10;;;;;;;10.16;100.00;100294.56;5093612;28;20032;-90
2022/10/09 01:52:34;;;;;;;9.52;1.52;;;;;;;10.16;100.00;100289.28;5072770;28;20385;-89
2022/10/09 01:55:26;;;;;;;11.50;1.52;;;;;;;10.20;100.00;100282.72;5095546;28;20115;-89
2022/10/09 01:58:15;;;;;;;10.90;1.13;;;;;;;10.25;100.00;100279.63;5092227;28;20028;-89
2022/10/09 02:00:55;;;;;;;6.15;0.88;;;;;;;10.29;100.00;100275.69;5085799;28;20380;-90
2022/10/09 02:03:26;;;;;;;7.22;0.80;;;;;;;10.34;100.00;100267.34;5096091;28;20039;-90
2022/10/09 02:05:56;;;;;;;11.48;1.08;;;;;;;10.36;100.00;100263.59;5095708;28;20028;-89
2022/10/09 02:08:24;;;;;;;10.65;0.95;;;;;;;10.41;100.00;100256.06;5084048;28;20085;-89
2022/10/09 02:10:59;;;;;;;8.20;0.77;;;;;;;10.43;100.00;100256.72;5078554;28;20046;-89
2022/10/09 02:13:27;;;;;;;13.00;1.40;;;;;;;10.41;100.00;100236.72;5075262;28;20036;-90
2022/10/09 02:16:05;;;;;;;7.63;1.08;;;;;;;10.46;100.00;100231.88;5080520;28;20083;-90
2022/10/09 02:18:44;;;;;;;14.55;1.25;;;;;;;10.48;100.00;100231.72;5085098;28;20126;-89
2022/10/09 02:21:23;;;;;;;6.05;0.88;;;;;;;10.51;100.00;100228.78;5078622;28;20032;-89
2022/10/09 02:23:53;;;;;;;8.95;1.05;;;;;;;10.51;100.00;100228.78;5066729;28;20480;-89
2022/10/09 02:26:21;;;;;;;12.82;1.15;;;;;;;10.50;100.00;100212.06;5086381;28;20036;-89
2022/10/09 02:28:51;;;;;;;6.32;0.65;;;;;;;10.52;100.00;100214.56;5099266;28;20036;-90
2022/10/09 02:31:31;;;;;;;4.75;1.02;;;;;;;10.53;100.00;100200.34;5107843;28;20082;-89
2022/10/09 02:34:06;;;;;;;19.23;1.80;;;;;;;10.53;100.00;100189.78;5096260;28;20099;-89
2022/10/09 02:36:35;;;;;;;11.45;0.90;;;;;;;10.54;100.00;100192.28;5079937;28;20032;-89
2022/10/09 02:39:05;;;;;;;7.32;1.13;;;;;;;10.53;100.00;100185.34;5073080;28;20042;-89
2022/10/09 02:41:33;;;;;;;6.63;1.45;;;;;;;10.55;100.00;100187.84;5060041;28;20040;-90
2022/10/09 02:44:03;;;;;;;7.35;0.82;;;;;;;10.56;100.00;100184.19;5069458;28;20031;-89
2022/10/09 02:46:31;;;;;;;5.97;0.70;;;;;;;10.56;100.00;100178.91;5076659;28;20601;-89
2022/10/09 02:49:01;;;;;;;8.40;0.98;;;;;;;10.59;100.00;100162.75;5102921;28;20063;-90
2022/10/09 02:51:31;;;;;;;13.30;1.05;;;;;;;10.58;100.00;100163.75;5119234;28;20039;-89
2022/10/09 02:54:01;;;;;;;6.60;0.95;;;;;;;10.58;100.00;100154.97;5120570;28;20442;-89
2022/10/09 02:56:30;;;;;;;8.85;1.08;;;;;;;10.59;100.00;100154.81;5073609;28;20065;-89
2022/10/09 02:58:59;;;;;;;7.55;1.08;;;;;;;10.59;100.00;100143.44;5104674;28;20109;-89
2022/10/09 03:01:27;;;;;;;7.80;0.57;;;;;;;10.55;100.00;100132.34;5106537;28;20088;-90
2022/10/09 03:03:57;;;;;;;14.20;1.42;;;;;;;10.53;100.00;100127.22;5087881;28;20086;-89
2022/10/09 03:06:28;;;;;;;9.68;1.20;;;;;;;10.52;100.00;100125.56;5090077;28;20038;-89
2022/10/09 03:08:58;;;;;;;13.93;1.83;;;;;;;10.54;100.00;100120.94;5088511;28;20130;-89
2022/10/09 03:11:27;;;;;;;11.45;1.13;;;;;;;10.58;100.00;100120.63;5084591;28;20082;-89
2022/10/09 03:13:57;;;;;;;7.70;1.20;;;;;;;10.58;100.00;100116.19;5108028;28;20447;-90
2022/10/09 03:16:27;;;;;;;8.05;0.98;;;;;;;10.64;100.00;100117.38;5090017;28;20082;-90
2022/10/09 03:18:54;;;;;;;8.07;1.00;;;;;;;10.69;100.00;100115.09;5079884;28;20032;-89
2022/10/09 03:21:25;;;;;;;8.63;1.42;;;;;;;10.73;100.00;100110.34;5102250;28;20039;-88
2022/10/09 03:23:54;;;;;;;10.18;1.33;;;;;;;10.76;100.00;100107.41;5088328;28;20031;-90
2022/10/09 03:26:24;;;;;;;4.28;0.95;;;;;;;10.81;100.00;100104.28;5103291;28;20058;-89
2022/10/09 03:28:53;;;;;;;15.85;1.90;;;;;;;10.85;100.00;100097.69;5093090;28;20034;-90
2022/10/09 03:31:25;;;;;;;10.80;1.15;;;;;;;10.87;100.00;100096.56;5103933;28;20480;-90
2022/10/09 03:33:54;;;;;;;15.93;1.30;;;;;;;10.88;100.00;100097.38;5101283;28;20387;-90
2022/10/09 03:36:22;;;;;;;11.18;1.17;;;;;;;10.88;100.00;100090.28;5108373;28;20435;-89
2022/10/09 03:38:51;;;;;;;9.40;1.23;;;;;;;10.91;100.00;100082.06;5083328;28;20040;-90
2022/10/09 03:41:18;;;;;;;15.55;1.17;;;;;;;10.94;100.00;100074.81;5093892;28;20038;-90
2022/10/09 03:43:46;;;;;;;13.95;1.13;;;;;;;10.98;100.00;100076.97;5095476;28;20059;-89
2022/10/09 03:46:14;;;;;;;10.50;1.13;;;;;;;10.99;100.00;100069.88;5108032;28;20042;-90
2022/10/09 03:48:43;;;;;;;9.80;1.52;;;;;;;10.99;100.00;100078.63;5102924;28;20036;-90
2022/10/09 03:51:12;;;;;;;5.75;0.98;;;;;;;10.99;100.00;100070.69;5082024;28;20130;-91
2022/10/09 03:53:40;;;;;;;10.40;1.17;;;;;;;10.94;100.00;100064.22;5081579;28;20032;-90
2022/10/09 03:56:08;;;;;;;14.13;1.25;;;;;;;10.93;100.00;100068.66;5081464;28;20032;-90
2022/10/09 03:58:36;;;;;;;9.15;1.10;;;;;;;10.91;100.00;100063.53;5095190;28;20063;-90
2022/10/09 04:01:04;;;;;;;8.80;1.10;;;;;;;10.97;100.00;100069.19;5122033;27;20032;-89
2022/10/09 04:03:31;;;;;;;15.07;1.70;;;;;;;10.96;100.00;100059.63;5092772;28;20424;-89
2022/10/09 04:06:00;;;;;;;9.95;1.38;;;;;;;11.01;100.00;100060.78;5086391;28;20032;-90
2022/10/09 04:08:28;;;;;;;6.40;0.82;;;;;;;11.01;100.00;100062.59;5096549;28;20028;-90
2022/10/09 04:10:59;;;;;;;9.77;1.35;;;;;;;11.04;100.00;100063.13;5061548;28;20028;-91
2022/10/09 04:13:29;;;;;;;8.77;1.23;;;;;;;11.08;100.00;100063.66;5091850;28;20040;-90
2022/10/09 04:15:59;;;;;;;8.30;1.00;;;;;;;11.12;100.00;100064.13;5087267;28;20087;-91
2022/10/09 04:18:29;;;;;;;10.57;1.33;;;;;;;11.14;100.00;100048.94;5068594;28;20042;-91
2022/10/09 04:20:58;;;;;;;8.63;1.15;;;;;;;11.16;100.00;100050.44;5093535;28;20483;-90
2022/10/09 04:23:27;;;;;;;11.73;1.20;;;;;;;11.18;100.00;100044.19;5087411;28;20081;-90
2022/10/09 04:26:00;;;;;;;12.20;2.08;;;;;;;11.20;100.00;100029.81;5094949;28;20476;-91
2022/10/09 04:28:30;;;;;;;10.75;1.45;;;;;;;11.24;100.00;100027.69;5079141;28;20557;-90
2022/10/09 04:30:58;;;;;;;11.15;1.63;;;;;;;11.23;100.00;100018.91;5094800;28;20036;-91
2022/10/09 04:33:28;;;;;;;6.07;0.95;;;;;;;11.24;100.00;100014.44;5067762;28;20032;-91
2022/10/09 04:35:57;;;;;;;16.38;1.55;;;;;;;11.23;100.00;100010.13;5087282;28;20035;-88
2022/10/09 04:38:25;;;;;;;11.40;1.77;;;;;;;11.19;100.00;100009.63;5091463;28;20036;-89
2022/10/09 04:40:58;;;;;;;9.95;1.42;;;;;;;11.20;100.00;100003.34;5081374;28;20032;-89
2022/10/09 04:43:26;;;;;;;8.63;0.75;;;;;;;11.17;100.00;99990.44;5082396;28;20395;-89
2022/10/09 04:45:54;;;;;;;10.70;2.13;;;;;;;11.19;100.00;99985.81;5067165;28;20058;-90
2022/10/09 04:48:22;;;;;;;10.88;1.17;;;;;;;11.15;100.00;99987.13;5101841;28;20042;-90
2022/10/09 04:50:51;;;;;;;7.68;0.93;;;;;;;11.14;100.00;99982.81;5067579;28;20028;-90
2022/10/09 04:53:19;;;;;;;9.05;1.40;;;;;;;11.16;100.00;99976.38;5097840;28;20085;-89
2022/10/09 04:55:47;;;;;;;9.55;1.50;;;;;;;11.19;100.00;99953.25;5077411;28;20040;-90
2022/10/09 04:58:14;;;;;;;12.95;1.80;;;;;;;11.18;100.00;99948.97;5091206;28;20032;-92
2022/10/09 05:00:46;;;;;;;16.27;1.88;;;;;;;11.21;100.00;99967.16;5033989;28;20036;-89
2022/10/09 05:03:16;;;;;;;16.73;1.90;;;;;;;11.20;100.00;99963.66;5074437;28;20031;-91
2022/10/09 05:05:46;;;;;;;19.30;2.33;;;;;;;11.22;100.00;99952.91;5080809;28;20035;-90
2022/10/09 05:08:15;;;;;;;15.25;2.28;;;;;;;11.21;100.00;99949.44;5071639;28;20031;-89
2022/10/09 05:10:45;;;;;;;18.17;2.15;;;;;;;11.22;100.00;99935.25;5075422;28;20379;-91
2022/10/09 05:13:14;;;;;;;18.35;2.05;;;;;;;11.24;100.00;99924.50;5069815;28;20105;-91
2022/10/09 05:15:41;;;;;;;12.05;1.90;;;;;;;11.25;100.00;99921.69;5101580;28;20147;-89
2022/10/09 05:18:10;;;;;;;13.38;2.22;;;;;;;11.27;100.00;99926.81;5083450;28;20042;-90
2022/10/09 05:20:41;;;;;;;16.30;1.83;;;;;;;11.29;100.00;99925.66;5076761;28;20153;-91
2022/10/09 05:23:11;;;;;;;14.35;1.90;;;;;;;11.28;100.00;99921.38;5095543;28;20028;-90
2022/10/09 05:25:40;;;;;;;16.08;2.47;;;;;;;11.32;100.00;99919.22;5070284;28;20090;-90
2022/10/09 05:28:09;;;;;;;12.98;2.42;;;;;;;11.33;100.00;99917.41;5079428;28;20032;-91
2022/10/09 05:30:41;;;;;;;17.23;2.25;;;;;;;11.33;100.00;99912.09;5088924;28;20031;-91
2022/10/09 05:33:10;;;;;;;15.68;2.33;;;;;;;11.29;100.00;99911.63;5081942;28;20159;-88
2022/10/09 05:35:39;;;;;;;17.23;2.13;;;;;;;11.27;100.00;99916.25;5087638;27;20027;-90
2022/10/09 05:38:07;;;;;;;18.55;2.30;;;;;;;11.23;100.00;99915.72;5080262;28;20492;-90
2022/10/09 05:40:35;;;;;;;14.27;2.20;;;;;;;11.26;100.00;99919.88;5078733;28;20028;-90
2022/10/09 05:43:03;;;;;;;16.27;2.38;;;;;;;11.22;100.00;99916.72;5077307;28;20040;-90
2022/10/09 05:45:31;;;;;;;23.73;2.58;;;;;;;11.24;100.00;99914.75;5077808;28;20446;-90
2022/10/09 05:47:58;;;;;;;20.58;2.33;;;;;;;11.25;100.00;99912.91;5103385;28;20467;-90
2022/10/09 05:50:28;;;;;;;19.85;2.45;;;;;;;11.27;100.00;99908.31;5087676;28;20681;-91
2022/10/09 05:52:58;;;;;;;16.92;2.33;;;;;;;11.31;100.00;99895.59;5087194;28;20038;-90
2022/10/09 05:55:27;;;;;;;18.95;2.50;;;;;;;11.29;100.00;99893.91;5114259;28;20035;-89
2022/10/09 05:57:55;;;;;;;18.67;2.20;;;;;;;11.27;100.00;99890.63;5108093;28;20043;-90
2022/10/09 06:00:23;;;;;;;15.32;1.90;;;;;;;11.25;100.00;99879.38;5071084;28;20037;-90
2022/10/09 06:02:51;;;;;;;16.13;2.20;;;;;;;11.24;100.00;99875.06;5087536;28;20035;-90
2022/10/09 06:05:22;;;;;;;16.42;2.65;;;;;;;11.24;100.00;99869.78;5091733;28;20031;-90
2022/10/09 06:07:51;;;;;;;9.95;1.48;;;;;;;11.23;100.00;99857.53;5091036;28;20034;-89
2022/10/09 06:10:20;;;;;;;10.75;1.77;;;;;;;11.23;100.00;99854.88;5084028;28;20498;-90
2022/10/09 06:12:48;;;;;;;13.65;1.40;;;;;;;11.24;100.00;99848.63;5105132;28;20043;-90
2022/10/09 06:15:18;;;;;;;9.68;1.60;;;;;;;11.24;100.00;99838.03;5084689;28;20040;-89
2022/10/09 06:17:46;;;;;;;14.10;1.83;;;;;;;11.26;100.00;99838.69;5086727;28;20395;-90
2022/10/09 06:20:14;;;;;;;12.55;1.85;;;;;;;11.26;100.00;99845.81;5068745;28;20035;-89
2022/10/09 06:22:43;;;;;;;10.90;1.10;;;;;;;11.26;100.00;99835.22;5080727;28;20036;-90
2022/10/09 06:25:10;;;;;;;13.02;1.52;;;;;;;11.26;100.00;99822.81;5075817;28;20127;-89
2022/10/09 06:27:39;;;;;;;12.32;2.38;;;;;;;11.26;100.00;99840.53;5089123;28;20042;-91
2022/10/09 06:30:08;;;;;;;12.10;1.63;;;;;;;11.22;100.00;99821.50;5109456;28;20267;-91
2022/10/09 06:32:36;;;;;;;13.20;2.05;;;;;;;11.25;100.00;99837.03;5108376;28;20036;-91
2022/10/09 06:35:04;;;;;;;10.23;1.80;;;;;;;11.25;100.00;99828.25;5058915;28;20091;-89
2022/10/09 06:37:32;;;;;;;10.45;1.10;;;;;;;11.26;100.00;99817.53;5070970;28;20039;-90
2022/10/09 06:40:00;;;;;;;8.23;1.52;;;;;;;11.25;100.00;99818.53;5094224;28;20034;-90
2022/10/09 06:42:29;;;;;;;16.02;1.20;;;;;;;11.26;100.00;99800.84;5084555;28;20032;-90
2022/10/09 06:44:59;;;;;;;11.73;1.45;;;;;;;11.28;100.00;99815.53;5098639;28;20035;-90
2022/10/09 06:47:26;;;;;;;11.38;1.55;;;;;;;11.27;100.00;99823.66;5083140;28;20036;-89
2022/10/09 06:49:56;;;;;;;10.15;1.45;;;;;;;11.32;100.00;99828.44;5091136;28;20028;-91
2022/10/09 06:52:23;;;;;;;11.55;1.83;;;;;;;11.30;100.00;99839.19;5099926;28;20043;-90
2022/10/09 06:54:53;;;;;;;7.20;1.50;;;;;;;11.33;100.00;99822.16;5083211;28;20495;-91
2022/10/09 06:57:23;;;;;;;11.32;1.98;;;;;;;11.36;100.00;99822.66;5106920;28;20032;-89
2022/10/09 06:59:53;;;;;;;11.70;1.58;;;;;;;11.37;100.00;99826.13;5105285;28;20052;-90
2022/10/09 07:02:22;;;;;;;11.38;1.48;;;;;;;11.38;100.00;99825.97;5064219;28;20478;-89
2022/10/09 07:04:51;;;;;;;14.38;1.83;;;;;;;11.43;100.00;99819.34;5100107;28;20422;-90
2022/10/09 07:07:19;;;;;;;16.60;2.25;;;;;;;11.43;100.00;99812.25;5096532;28;20482;-90
2022/10/09 07:09:47;;;;;;;10.52;1.73;;;;;;;11.46;100.00;99803.13;5105720;28;20060;-91
2022/10/09 07:12:15;;;;;;;11.63;1.50;;;;;;;11.45;100.00;99791.72;5078486;28;20036;-90
2022/10/09 07:14:45;;;;;;;14.93;1.88;;;;;;;11.50;100.00;99788.56;5068194;28;20052;-88
2022/10/09 07:17:15;;;;;;;11.48;1.50;;;;;;;11.53;100.00;99791.72;5099875;28;20057;-90
2022/10/09 07:19:45;;;;;;;13.23;2.20;;;;;;;11.57;100.00;99786.09;5058963;28;20066;-90
2022/10/09 07:22:13;;;;;;;18.55;2.65;;;;;;;11.53;100.00;99783.78;5106109;28;20059;-91
2022/10/09 07:24:41;;;;;;;16.70;2.47;;;;;;;11.57;100.00;99780.78;5087055;28;20032;-89
2022/10/09 07:27:10;;;;;;;14.57;2.20;;;;;;;11.58;100.00;99777.97;5108774;28;20189;-89
2022/10/09 07:29:37;;;;;;;14.20;1.80;;;;;;;11.58;100.00;99767.38;5079141;28;20032;-90
2022/10/09 07:32:06;;;;;;;23.60;2.22;;;;;;;11.62;100.00;99763.44;5097656;28;20081;-90
2022/10/09 07:34:34;;;;;;;13.32;2.50;;;;;;;11.65;100.00;99762.25;5071088;28;20064;-91
2022/10/09 07:37:02;;;;;;;9.38;2.10;;;;;;;11.67;100.00;99752.34;5085693;28;20039;-90
2022/10/09 07:39:29;;;;;;;14.73;2.83;;;;;;;11.65;100.00;99756.97;5097498;28;20388;-90
2022/10/09 07:41:58;;;;;;;15.95;2.38;;;;;;;11.71;100.00;99758.09;5078455;28;20039;-91
2022/10/09 07:44:26;;;;;;;14.32;2.50;;;;;;;11.71;100.00;99758.94;5082508;28;20085;-90
2022/10/09 07:46:54;;;;;;;10.93;2.13;;;;;;;11.74;100.00;99760.41;5063169;28;20028;-90
2022/10/09 07:49:22;;;;;;;15.15;2.67;;;;;;;11.78;100.00;99751.16;5090633;28;20036;-87
2022/10/09 07:51:50;;;;;;;16.65;2.28;;;;;;;11.76;100.00;99747.84;5108664;28;20024;-83
2022/10/09 07:54:18;;;;;;;12.10;1.58;;;;;;;11.79;100.00;99756.28;5073368;28;20039;-85
2022/10/09 07:56:46;;;;;;;14.27;2.65;;;;;;;11.82;100.00;99747.16;5073520;28;20034;-82
2022/10/09 07:59:16;;;;;;;10.60;1.80;;;;;;;11.84;100.00;99745.19;5089334;28;20036;-85
2022/10/09 08:01:43;;;;;;;11.10;2.55;;;;;;;11.88;100.00;99735.88;5093233;28;20049;-81
2022/10/09 08:04:11;;;;;;;15.63;2.33;;;;;;;11.86;100.00;99743.19;5086690;28;20107;-82
2022/10/09 08:06:41;;;;;;;17.65;3.30;;;;;;;11.90;100.00;99733.91;5103625;28;20115;-83
2022/10/09 08:09:11;;;;;;;16.88;2.70;;;;;;;11.93;100.00;99732.72;5101719;28;20028;-83
2022/10/09 08:11:41;;;;;;;14.18;2.53;;;;;;;11.95;100.00;99716.66;5109309;28;20662;-82
2022/10/09 08:14:14;;;;;;;14.32;1.98;;;;;;;11.95;100.00;99720.16;5104979;28;20027;-85
2022/10/09 08:16:44;;;;;;;14.00;2.85;;;;;;;11.96;100.00;99713.03;5073814;28;20049;-81
2022/10/09 08:19:13;;;;;;;17.77;2.25;;;;;;;11.97;100.00;99720.81;5098639;28;20043;-83
2022/10/09 08:21:41;;;;;;;12.88;2.50;;;;;;;11.97;100.00;99725.28;5074370;28;20057;-85
2022/10/09 08:24:10;;;;;;;12.20;1.73;;;;;;;11.98;100.00;99737.50;5072141;28;20068;-82
2022/10/09 08:26:38;;;;;;;17.33;2.72;;;;;;;11.98;100.00;99741.00;5079299;28;20085;-82
2022/10/09 08:29:07;;;;;;;12.48;1.67;;;;;;;11.99;100.00;99729.38;5079639;28;20066;-82
2022/10/09 08:31:35;;;;;;;17.73;2.53;;;;;;;11.99;100.00;99737.34;5103686;28;20034;-81
2022/10/09 08:34:03;;;;;;;20.65;2.53;;;;;;;12.01;100.00;99719.47;5088044;28;20494;-85
2022/10/09 08:36:32;;;;;;;13.10;2.53;;;;;;;11.98;100.00;99708.38;5094272;28;20116;-83
2022/10/09 08:39:01;;;;;;;18.33;2.53;;;;;;;11.98;100.00;99709.22;5086947;28;20398;-82
2022/10/09 08:41:43;;;;;;;17.75;2.75;;;;;;;11.99;100.00;99715.34;5102703;28;20549;-83
2022/10/09 08:44:14;;;;;;;10.18;1.70;;;;;;;11.99;100.00;99702.91;5076554;28;20047;-84
2022/10/09 08:46:58;;;;;;;17.98;2.47;;;;;;;11.99;100.00;99704.75;5109633;28;20490;-83
2022/10/09 08:49:30;;;;;;;12.57;1.75;;;;;;;12.00;100.00;99686.03;5082219;28;20071;-81
2022/10/09 08:52:08;;;;;;;11.80;2.20;;;;;;;12.03;100.00;99696.28;5079232;28;20122;-83
2022/10/09 08:54:39;;;;;;;10.98;2.10;;;;;;;12.09;100.00;99691.34;5086257;28;20059;-82
2022/10/09 08:57:13;;;;;;;14.90;2.20;;;;;;;12.11;100.00;99682.19;5108889;28;20043;-83
2022/10/09 08:59:43;;;;;;;12.57;2.40;;;;;;;12.16;100.00;99679.03;5086825;28;20050;-82
2022/10/09 09:02:48;;;;;;;17.52;2.53;;;;;;;12.21;100.00;99670.56;5087357;28;20544;-82
2022/10/09 09:05:26;;;;;;;9.77;1.85;;;;;;;12.20;100.00;99690.91;5105043;28;20020;-85
2022/10/09 09:08:05;;;;;;;17.23;2.33;;;;;;;12.18;100.00;99687.63;5084718;28;20032;-84
2022/10/09 09:10:37;;;;;;;9.75;1.48;;;;;;;12.13;100.00;99655.53;5107709;28;20028;-84
2022/10/09 09:13:19;;;;;;;18.00;2.58;;;;;;;12.10;100.00;99662.03;5070522;28;20032;-85
2022/10/09 09:16:21;;;;;;;17.73;2.22;;;;;;;12.06;100.00;99670.44;5091284;28;20048;-83
2022/10/09 09:19:09;;;;;;;18.02;3.38;;;;;;;12.06;100.00;99663.31;5093539;28;20040;-87
2022/10/09 09:21:50;;;;;;;14.73;1.95;;;;;;;12.06;100.00;99667.78;5105833;28;20032;-83
2022/10/09 09:24:49;;;;;;;14.65;2.28;;;;;;;12.02;100.00;99667.31;5060380;28;20134;-86
2022/10/09 09:27:22;;;;;;;12.55;2.38;;;;;;;12.02;100.00;99664.66;5075732;28;20065;-82
2022/10/09 09:30:12;;;;;;;19.17;2.95;;;;;;;12.00;100.00;99659.53;5091929;28;20028;-82
2022/10/09 09:32:45;;;;;;;15.07;2.33;;;;;;;12.00;100.00;99648.97;5087777;28;20059;-84
2022/10/09 09:35:32;;;;;;;17.90;2.55;;;;;;;11.98;100.00;99645.66;5100931;28;20380;-85
2022/10/09 09:38:02;;;;;;;10.80;2.00;;;;;;;12.02;100.00;99631.03;5054847;28;20059;-83
2022/10/09 09:40:33;;;;;;;11.98;2.20;;;;;;;12.04;100.00;99631.69;5085401;28;20028;-81
2022/10/09 09:43:02;;;;;;;15.32;2.63;;;;;;;12.08;100.00;99629.56;5106777;27;20027;-84
2022/10/09 09:45:30;;;;;;;17.80;2.38;;;;;;;12.09;100.00;99615.31;5085321;28;20089;-83
2022/10/09 09:48:04;;;;;;;14.35;1.92;;;;;;;12.10;100.00;99619.63;5092287;28;20042;-87
2022/10/09 09:50:38;;;;;;;14.05;2.35;;;;;;;12.11;100.00;99617.78;5121493;27;20044;-87
2022/10/09 09:53:29;;;;;;;16.02;2.92;;;;;;;12.11;100.00;99608.03;5077357;28;20050;-83
2022/10/09 09:55:58;;;;;;;14.20;1.88;;;;;;;12.15;100.00;99611.16;5071535;28;20040;-83
2022/10/09 09:58:37;;;;;;;14.98;2.22;;;;;;;12.17;100.00;99595.91;5076079;28;21309;-86
2022/10/09 10:01:06;;;;;;;20.48;3.55;;;;;;;12.17;100.00;99595.91;5074492;28;20542;-84
2022/10/09 10:03:35;;;;;;;17.35;2.58;;;;;;;12.18;100.00;99580.84;5094339;28;20032;-83
2022/10/09 10:06:03;;;;;;;10.27;2.28;;;;;;;12.21;100.00;99583.97;5100682;28;20032;-82
2022/10/09 10:08:33;;;;;;;12.52;2.42;;;;;;;12.22;100.00;99584.78;5084948;28;20043;-83
2022/10/09 10:11:06;;;;;;;17.50;2.53;;;;;;;12.22;100.00;99577.66;5063603;28;20104;-84
2022/10/09 10:13:50;;;;;;;14.07;2.20;;;;;;;12.25;100.00;99572.00;5077546;28;20039;-82
2022/10/09 10:16:31;;;;;;;12.48;2.30;;;;;;;12.30;100.00;99557.38;5051225;28;20055;-82
2022/10/09 10:19:02;;;;;;;16.42;2.40;;;;;;;12.30;100.00;99557.38;5036793;28;20062;-81
2022/10/09 10:21:40;;;;;;;12.55;2.22;;;;;;;12.28;100.00;99542.50;5055037;28;20032;-87
2022/10/09 10:24:14;;;;;;;16.45;2.08;;;;;;;12.33;100.00;99535.81;5081794;28;20041;-83
2022/10/09 10:27:07;;;;;;;14.35;2.10;;;;;;;12.35;100.00;99533.84;5067342;28;20044;-85
2022/10/09 10:29:47;;;;;;;15.73;2.55;;;;;;;12.35;100.00;99518.78;5078059;28;20046;-84
2022/10/09 10:32:32;;;;;;;12.10;2.38;;;;;;;12.38;100.00;99531.66;5065418;28;20384;-83
2022/10/09 10:35:16;;;;;;;15.87;2.60;;;;;;;12.42;100.00;99528.66;5074915;28;20042;-86
2022/10/09 10:37:55;;;;;;;14.35;2.70;;;;;;;12.48;100.00;99535.88;5047734;28;20508;-83
2022/10/09 10:40:29;;;;;;;13.10;2.22;;;;;;;12.49;100.00;99530.41;5052429;28;21763;-83
2022/10/09 10:43:15;;;;;;;13.07;2.28;;;;;;;12.53;100.00;99528.22;5070220;28;20028;-82
2022/10/09 10:46:03;;;;;;;13.55;2.35;;;;;;;12.56;100.00;99517.25;5069625;28;20032;-83
2022/10/09 10:48:47;;;;;;;13.05;1.95;;;;;;;12.60;100.00;99513.22;5075524;28;21808;-79
2022/10/09 10:51:23;;;;;;;8.57;1.63;;;;;;;12.65;100.00;99512.69;5047992;28;20506;-84
2022/10/09 10:54:01;;;;;;;;;;;;;;;12.59;100.00;99501.00;5070610;28;20044;-80
2022/10/09 10:57:01;;;;;;;12.80;2.53;;;;;;;12.64;100.00;99497.81;5042278;28;19916;-80
2022/10/09 10:59:52;;;;;;;12.77;1.70;;;;;;;12.67;100.00;99492.13;5020420;28;20032;-86
2022/10/09 11:02:48;;;;;;;10.02;1.42;;;;;;;12.69;100.00;99474.22;5036467;28;20485;-85
2022/10/09 11:05:26;;;;;;;12.82;2.55;;;;;;;12.78;100.00;99486.38;5053614;28;20040;-83
2022/10/09 11:08:02;;;;;;;14.52;2.00;;;;;;;12.82;100.00;99481.50;5089370;28;20103;-82
2022/10/09 11:10:49;;;;;;;;;;;;;;;12.81;100.00;99471.94;5074249;28;20040;-88
2022/10/09 11:13:26;;;;;;;7.45;1.50;;;;;;;12.94;100.00;99468.63;5069685;28;19912;-86
2022/10/09 11:16:07;;;;;;;11.25;1.55;;;;;;;13.03;100.00;99472.00;5062630;28;20052;-85
2022/10/09 11:19:01;;;;;;;10.38;1.85;;;;;;;13.00;100.00;99467.91;5014578;28;21113;-83
2022/10/09 11:21:49;;;;;;;6.40;1.33;;;;;;;13.05;100.00;99442.63;5058572;28;20062;-82
2022/10/09 11:24:30;;;;;;;15.02;1.52;;;;;;;13.08;100.00;99450.22;5041490;28;20109;-81
2022/10/09 11:27:06;;;;;;;7.10;1.40;;;;;;;13.06;100.00;99458.38;5079293;28;20062;-81
2022/10/09 11:30:11;;;;;;;8.00;1.67;;;;;;;13.08;100.00;99452.88;5064860;28;20039;-83
2022/10/09 11:33:02;;;;;;;9.07;1.40;;;;;;;13.08;100.00;99451.06;5046716;28;20040;-85
2022/10/09 11:35:43;;;;;;;12.02;1.92;;;;;;;13.17;100.00;99446.44;5049325;28;20549;-87
2022/10/09 11:38:53;;;;;;;11.65;1.40;;;;;;;13.21;100.00;99450.38;5088894;28;20028;-85
2022/10/09 11:41:24;;;;;;;6.00;1.73;;;;;;;13.23;100.00;99452.84;5045418;28;20036;-87
2022/10/09 11:44:07;;;;;;;7.57;1.60;;;;;;;13.27;100.00;99447.00;5053540;28;20069;-87